createdAt,value
2017-09-17T00:00:45.817Z,9.60
2017-09-17T00:03:16.325Z,9.50
2017-09-17T00:05:51.119Z,9.60
2017-09-17T00:08:22.212Z,9.50
2017-09-17T00:10:52.976Z,9.50
2017-09-17T00:13:24.174Z,9.50
2017-09-17T00:15:54.802Z,9.50
2017-09-17T00:18:25.413Z,9.50
2017-09-17T00:20:58.132Z,9.40
2017-09-17T00:23:29.274Z,9.40
2017-09-17T00:25:59.880Z,9.30
2017-09-17T00:28:30.839Z,9.30
2017-09-17T00:31:01.769Z,9.30
2017-09-17T00:33:32.314Z,9.30
2017-09-17T00:36:03.369Z,9.30
2017-09-17T00:38:34.330Z,9.20
2017-09-17T00:41:05.512Z,9.20
2017-09-17T00:43:36.747Z,9.20
2017-09-17T00:46:08.446Z,9.20
2017-09-17T00:48:39.479Z,9.20
2017-09-17T00:51:15.330Z,9.10
2017-09-17T00:53:46.358Z,9.10
2017-09-17T00:56:17.860Z,9.00
2017-09-17T00:58:48.847Z,9.00
2017-09-17T01:01:19.641Z,9.00
2017-09-17T01:03:51.187Z,9.00
2017-09-17T01:06:24.488Z,9.00
2017-09-17T01:08:56.202Z,8.90
2017-09-17T01:11:27.041Z,8.90
2017-09-17T01:13:59.040Z,8.90
2017-09-17T01:16:31.611Z,8.80
2017-09-17T01:19:03.144Z,8.70
2017-09-17T01:21:34.964Z,8.70
2017-09-17T01:24:07.133Z,8.70
2017-09-17T01:26:39.566Z,8.70
2017-09-17T01:29:10.888Z,8.40
2017-09-17T01:31:44.120Z,8.10
2017-09-17T01:34:15.422Z,7.90
2017-09-17T01:36:46.911Z,7.90
2017-09-17T01:39:18.405Z,8.00
2017-09-17T01:41:49.706Z,8.10
2017-09-17T01:44:27.657Z,8.30
2017-09-17T01:46:58.666Z,8.40
2017-09-17T01:49:29.465Z,8.50
2017-09-17T01:52:01.436Z,8.50
2017-09-17T01:54:33.164Z,8.60
2017-09-17T01:57:06.913Z,8.60
2017-09-17T01:59:38.236Z,8.60
2017-09-17T02:02:09.998Z,8.70
2017-09-17T02:04:44.292Z,8.70
2017-09-17T02:07:16.906Z,8.70
2017-09-17T02:09:50.093Z,8.70
2017-09-17T02:12:22.381Z,8.70
2017-09-17T02:14:54.060Z,8.70
2017-09-17T02:17:28.187Z,8.70
2017-09-17T02:20:00.176Z,8.70
2017-09-17T02:22:31.646Z,8.70
2017-09-17T02:25:02.825Z,8.70
2017-09-17T02:27:34.894Z,8.60
2017-09-17T02:30:07.175Z,8.60
2017-09-17T02:32:37.855Z,8.60
2017-09-17T02:35:10.490Z,8.60
2017-09-17T02:37:41.848Z,8.60
2017-09-17T02:40:15.002Z,8.50
2017-09-17T02:42:47.058Z,8.40
2017-09-17T02:45:18.699Z,8.40
2017-09-17T02:47:49.975Z,8.40
2017-09-17T02:50:20.691Z,8.40
2017-09-17T02:52:51.180Z,8.40
2017-09-17T02:55:22.564Z,8.40
2017-09-17T02:57:54.129Z,8.40
2017-09-17T03:00:25.209Z,8.40
2017-09-17T03:02:57.320Z,8.40
2017-09-17T03:05:29.094Z,8.30
2017-09-17T03:08:00.841Z,8.30
2017-09-17T03:10:32.304Z,8.30
2017-09-17T03:13:03.933Z,8.30
2017-09-17T03:15:41.649Z,8.30
2017-09-17T03:18:12.940Z,8.30
2017-09-17T03:20:44.409Z,8.20
2017-09-17T03:23:18.366Z,8.20
2017-09-17T03:25:52.070Z,8.20
2017-09-17T03:28:25.375Z,8.20
2017-09-17T03:30:57.131Z,8.10
2017-09-17T03:33:27.798Z,8.10
2017-09-17T03:35:58.615Z,8.10
2017-09-17T03:38:30.235Z,8.10
2017-09-17T03:43:53.442Z,8.10
2017-09-17T03:46:27.842Z,8.00
2017-09-17T03:48:59.363Z,8.10
2017-09-17T03:51:31.052Z,8.00
2017-09-17T03:54:06.275Z,8.00
2017-09-17T03:56:38.152Z,8.00
2017-09-17T03:59:09.385Z,8.00
2017-09-17T04:01:40.344Z,7.90
2017-09-17T04:04:11.896Z,7.90
2017-09-17T04:06:43.378Z,7.90
2017-09-17T04:09:15.001Z,7.90
2017-09-17T04:11:45.611Z,7.90
2017-09-17T04:14:16.368Z,7.90
2017-09-17T04:16:47.901Z,7.80
2017-09-17T04:19:19.389Z,7.80
2017-09-17T04:21:50.160Z,7.70
2017-09-17T04:24:22.589Z,7.80
2017-09-17T04:26:54.013Z,7.90
2017-09-17T04:29:25.160Z,7.90
2017-09-17T04:31:57.514Z,7.80
2017-09-17T04:34:29.294Z,7.70
2017-09-17T04:37:00.186Z,7.70
2017-09-17T04:39:30.904Z,7.70
2017-09-17T04:42:03.308Z,7.70
2017-09-17T04:44:33.687Z,7.70
2017-09-17T04:47:05.386Z,7.60
2017-09-17T04:49:37.182Z,7.60
2017-09-17T04:52:08.148Z,7.60
2017-09-17T04:54:39.382Z,7.60
2017-09-17T04:57:09.997Z,7.60
2017-09-17T04:59:40.552Z,7.50
2017-09-17T05:02:11.218Z,7.50
2017-09-17T05:04:42.179Z,7.50
2017-09-17T05:07:13.407Z,7.50
2017-09-17T05:09:44.455Z,7.50
2017-09-17T05:12:15.463Z,7.40
2017-09-17T05:14:46.071Z,7.40
2017-09-17T05:17:17.893Z,7.40
2017-09-17T05:19:48.838Z,7.40
2017-09-17T05:22:19.690Z,7.40
2017-09-17T05:24:50.836Z,7.40
2017-09-17T05:27:21.489Z,7.40
2017-09-17T05:29:53.655Z,7.40
2017-09-17T05:32:23.995Z,7.40
2017-09-17T05:35:02.563Z,7.40
2017-09-17T05:37:37.413Z,7.50
2017-09-17T05:40:09.412Z,7.50
2017-09-17T05:42:40.137Z,7.50
2017-09-17T05:45:10.732Z,7.50
2017-09-17T05:47:41.944Z,7.50
2017-09-17T05:50:14.143Z,7.60
2017-09-17T05:52:44.809Z,7.60
2017-09-17T05:55:15.217Z,7.60
2017-09-17T05:57:45.601Z,7.60
2017-09-17T06:00:16.508Z,7.60
2017-09-17T06:02:48.296Z,7.60
2017-09-17T06:05:19.542Z,7.60
2017-09-17T06:07:51.181Z,7.70
2017-09-17T06:10:22.304Z,7.70
2017-09-17T06:12:53.983Z,7.70
2017-09-17T06:15:24.606Z,7.70
2017-09-17T06:17:55.852Z,7.80
2017-09-17T06:20:27.123Z,7.80
2017-09-17T06:22:58.069Z,7.80
2017-09-17T06:25:29.025Z,7.90
2017-09-17T06:28:01.844Z,8.00
2017-09-17T06:30:33.097Z,8.00
2017-09-17T06:33:04.330Z,8.00
2017-09-17T06:35:36.383Z,8.00
2017-09-17T06:38:07.360Z,8.10
2017-09-17T06:40:40.543Z,8.20
2017-09-17T06:43:12.305Z,8.20
2017-09-17T06:45:44.859Z,8.30
2017-09-17T06:48:15.984Z,8.30
2017-09-17T06:50:47.041Z,8.40
2017-09-17T06:53:18.667Z,8.40
2017-09-17T06:55:49.369Z,8.50
2017-09-17T06:58:20.417Z,8.50
2017-09-17T07:00:55.571Z,8.60
2017-09-17T07:03:26.724Z,8.70
2017-09-17T07:05:58.595Z,8.80
2017-09-17T07:08:30.536Z,8.90
2017-09-17T07:11:01.737Z,9.10
2017-09-17T07:13:32.120Z,9.30
2017-09-17T07:16:03.332Z,9.70
2017-09-17T07:18:34.444Z,10.00
2017-09-17T07:21:06.215Z,10.30
2017-09-17T07:23:37.001Z,10.30
2017-09-17T07:26:07.981Z,10.60
2017-09-17T07:28:39.256Z,11.20
2017-09-17T07:31:09.710Z,11.20
2017-09-17T07:33:40.487Z,11.70
2017-09-17T07:36:11.327Z,12.10
2017-09-17T07:38:41.760Z,12.70
2017-09-17T07:41:13.118Z,13.90
2017-09-17T07:43:43.423Z,13.90
2017-09-17T07:46:14.713Z,14.30
2017-09-17T07:48:45.707Z,14.20
2017-09-17T07:51:16.194Z,14.60
2017-09-17T07:53:47.421Z,14.50
2017-09-17T07:56:17.920Z,14.50
2017-09-17T07:58:48.305Z,15.30
2017-09-17T08:01:19.226Z,15.10
2017-09-17T08:03:54.618Z,15.20
2017-09-17T08:06:27.812Z,14.20
2017-09-17T08:08:59.174Z,14.50
2017-09-17T08:11:30.186Z,15.10
2017-09-17T08:14:00.795Z,15.00
2017-09-17T08:16:31.155Z,15.00
2017-09-17T08:19:02.126Z,15.30
2017-09-17T08:21:32.470Z,15.40
2017-09-17T08:24:04.080Z,15.50
2017-09-17T08:26:36.055Z,15.80
2017-09-17T08:29:07.306Z,15.40
2017-09-17T08:31:37.368Z,15.30
2017-09-17T08:34:08.211Z,15.00
2017-09-17T08:36:38.237Z,14.60
2017-09-17T08:39:08.364Z,14.60
2017-09-17T08:41:39.275Z,14.40
2017-09-17T08:44:09.693Z,14.30
2017-09-17T08:46:39.854Z,14.20
2017-09-17T08:49:09.945Z,14.20
2017-09-17T08:51:40.124Z,13.80
2017-09-17T08:54:10.613Z,13.90
2017-09-17T08:56:41.461Z,14.70
2017-09-17T08:59:12.824Z,14.90
2017-09-17T09:01:45.160Z,14.90
2017-09-17T09:04:15.954Z,15.00
2017-09-17T09:06:46.937Z,15.90
2017-09-17T09:09:18.430Z,16.90
2017-09-17T09:11:48.572Z,16.80
2017-09-17T09:14:18.905Z,17.10
2017-09-17T09:16:49.475Z,17.70
2017-09-17T09:19:20.676Z,18.70
2017-09-17T09:21:50.977Z,18.70
2017-09-17T09:24:21.637Z,18.40
2017-09-17T09:26:51.665Z,18.30
2017-09-17T09:29:21.949Z,17.90
2017-09-17T09:31:52.619Z,17.80
2017-09-17T09:34:23.029Z,17.80
2017-09-17T09:36:53.737Z,17.70
2017-09-17T09:39:24.146Z,17.20
2017-09-17T09:41:54.423Z,17.30
2017-09-17T09:44:24.848Z,18.20
2017-09-17T09:46:55.097Z,18.60
2017-09-17T09:49:26.074Z,19.20
2017-09-17T09:51:56.948Z,18.90
2017-09-17T09:54:27.303Z,18.90
2017-09-17T09:56:57.908Z,18.80
2017-09-17T09:59:28.233Z,18.20
2017-09-17T10:01:58.663Z,18.10
2017-09-17T10:04:29.139Z,18.10
2017-09-17T10:06:59.462Z,19.30
2017-09-17T10:09:30.161Z,20.60
2017-09-17T10:12:01.246Z,20.20
2017-09-17T10:14:31.883Z,20.20
2017-09-17T10:17:02.010Z,19.00
2017-09-17T10:19:32.073Z,18.00
2017-09-17T10:22:02.869Z,18.00
2017-09-17T10:24:34.579Z,18.00
2017-09-17T10:27:04.763Z,17.80
2017-09-17T10:29:34.923Z,17.50
2017-09-17T10:32:05.886Z,19.10
2017-09-17T10:34:36.668Z,19.10
2017-09-17T10:37:07.833Z,18.90
2017-09-17T10:39:38.810Z,19.80
2017-09-17T10:42:08.924Z,19.80
2017-09-17T10:44:39.333Z,20.10
2017-09-17T10:47:09.363Z,19.90
2017-09-17T10:49:39.560Z,19.50
2017-09-17T10:52:10.310Z,18.80
2017-09-17T10:54:40.576Z,18.80
2017-09-17T10:57:10.785Z,18.30
2017-09-17T10:59:41.372Z,18.70
2017-09-17T11:02:11.767Z,18.90
2017-09-17T11:04:41.944Z,19.00
2017-09-17T11:07:14.346Z,19.00
2017-09-17T11:09:44.534Z,18.80
2017-09-17T11:12:17.274Z,19.30
2017-09-17T11:14:48.586Z,19.20
2017-09-17T11:17:18.758Z,19.10
2017-09-17T11:19:50.385Z,19.20
2017-09-17T11:22:22.559Z,20.60
2017-09-17T11:24:53.179Z,20.60
2017-09-17T11:27:27.007Z,21.50
2017-09-17T11:29:58.134Z,20.80
2017-09-17T11:32:28.465Z,20.80
2017-09-17T11:34:58.844Z,19.90
2017-09-17T11:37:29.302Z,20.00
2017-09-17T11:39:59.377Z,19.90
2017-09-17T11:42:29.553Z,20.30
2017-09-17T11:45:00.471Z,19.80
2017-09-17T11:47:30.997Z,19.80
2017-09-17T11:50:01.185Z,20.30
2017-09-17T11:52:31.266Z,20.20
2017-09-17T11:55:02.203Z,19.60
2017-09-17T11:57:32.618Z,19.60
2017-09-17T12:00:02.872Z,20.20
2017-09-17T12:02:33.029Z,19.90
2017-09-17T12:05:03.308Z,19.30
2017-09-17T12:07:34.694Z,20.00
2017-09-17T12:10:04.826Z,20.00
2017-09-17T12:12:35.013Z,20.30
2017-09-17T12:15:05.266Z,19.80
2017-09-17T12:17:35.648Z,19.60
2017-09-17T12:20:05.941Z,20.40
2017-09-17T12:22:36.266Z,20.50
2017-09-17T12:25:07.250Z,21.00
2017-09-17T12:27:37.445Z,21.00
2017-09-17T12:30:09.542Z,20.60
2017-09-17T12:32:40.669Z,20.70
2017-09-17T12:35:10.950Z,20.10
2017-09-17T12:37:41.203Z,20.00
2017-09-17T12:40:15.161Z,20.80
2017-09-17T12:42:52.514Z,20.80
2017-09-17T12:45:22.758Z,20.80
2017-09-17T12:47:52.981Z,20.30
2017-09-17T12:50:23.414Z,19.70
2017-09-17T12:52:53.607Z,19.80
2017-09-17T12:55:23.907Z,19.80
2017-09-17T12:57:55.315Z,19.90
2017-09-17T13:00:25.650Z,19.90
2017-09-17T13:02:55.987Z,20.30
2017-09-17T13:05:26.111Z,19.30
2017-09-17T13:07:56.723Z,20.00
2017-09-17T13:10:27.029Z,21.10
2017-09-17T13:12:57.218Z,21.70
2017-09-17T13:15:28.026Z,21.20
2017-09-17T13:17:58.638Z,21.20
2017-09-17T13:20:28.679Z,21.30
2017-09-17T13:22:59.773Z,21.40
2017-09-17T13:25:30.088Z,21.40
2017-09-17T13:28:00.463Z,20.70
2017-09-17T13:30:30.634Z,19.70
2017-09-17T13:33:01.533Z,19.90
2017-09-17T13:35:32.999Z,19.80
2017-09-17T13:38:04.189Z,20.70
2017-09-17T13:40:34.339Z,20.70
2017-09-17T13:43:04.849Z,21.70
2017-09-17T13:45:35.358Z,22.00
2017-09-17T13:48:05.532Z,22.60
2017-09-17T13:50:35.713Z,22.20
2017-09-17T13:53:06.266Z,21.80
2017-09-17T13:55:37.395Z,20.50
2017-09-17T13:58:07.955Z,20.40
2017-09-17T14:00:40.889Z,21.10
2017-09-17T14:03:11.412Z,21.10
2017-09-17T14:05:41.846Z,21.00
2017-09-17T14:08:12.635Z,20.50
2017-09-17T14:10:43.719Z,21.30
2017-09-17T14:13:14.407Z,21.30
2017-09-17T14:15:44.838Z,21.40
2017-09-17T14:18:16.594Z,21.40
2017-09-17T14:20:47.970Z,21.20
2017-09-17T14:23:18.194Z,21.20
2017-09-17T14:25:48.391Z,21.20
2017-09-17T14:28:20.237Z,20.40
2017-09-17T14:30:50.798Z,20.30
2017-09-17T14:33:21.020Z,20.20
2017-09-17T14:35:51.261Z,19.90
2017-09-17T14:38:22.034Z,19.90
2017-09-17T14:40:52.405Z,19.90
2017-09-17T14:43:22.537Z,20.30
2017-09-17T14:45:53.015Z,19.80
2017-09-17T14:48:23.866Z,19.80
2017-09-17T14:50:54.057Z,19.80
2017-09-17T14:53:24.980Z,19.40
2017-09-17T14:55:55.130Z,18.60
2017-09-17T14:58:25.397Z,18.50
2017-09-17T15:00:55.784Z,18.10
2017-09-17T15:03:25.860Z,18.00
2017-09-17T15:05:55.890Z,17.90
2017-09-17T15:08:26.355Z,17.90
2017-09-17T15:10:57.435Z,18.10
2017-09-17T15:13:27.535Z,18.10
2017-09-17T15:15:58.174Z,17.90
2017-09-17T15:18:28.799Z,17.90
2017-09-17T15:21:00.272Z,16.90
2017-09-17T15:23:30.530Z,16.90
2017-09-17T15:26:01.590Z,16.30
2017-09-17T15:28:32.669Z,16.50
2017-09-17T15:31:03.311Z,16.50
2017-09-17T15:33:33.562Z,16.40
2017-09-17T15:36:03.824Z,16.00
2017-09-17T15:38:33.978Z,16.00
2017-09-17T15:41:04.271Z,16.00
2017-09-17T15:43:34.456Z,16.10
2017-09-17T15:46:05.361Z,16.10
2017-09-17T15:48:35.763Z,16.20
2017-09-17T15:51:05.965Z,16.00
2017-09-17T15:53:37.029Z,15.80
2017-09-17T15:56:07.378Z,15.80
2017-09-17T15:58:37.690Z,15.70
2017-09-17T16:01:07.887Z,15.50
2017-09-17T16:03:38.245Z,15.70
2017-09-17T16:06:08.998Z,15.40
2017-09-17T16:08:40.130Z,15.50
2017-09-17T16:11:10.916Z,15.40
2017-09-17T16:13:41.084Z,15.50
2017-09-17T16:16:11.352Z,15.40
2017-09-17T16:18:43.198Z,15.80
2017-09-17T16:21:14.218Z,16.00
2017-09-17T16:23:44.462Z,16.00
2017-09-17T16:26:16.008Z,15.80
2017-09-17T16:28:47.269Z,15.80
2017-09-17T16:31:17.496Z,15.60
2017-09-17T16:33:48.471Z,15.60
2017-09-17T16:36:18.980Z,15.50
2017-09-17T16:38:51.031Z,15.40
2017-09-17T16:43:54.567Z,14.90
2017-09-17T16:46:25.142Z,15.00
2017-09-17T16:48:56.081Z,15.20
2017-09-17T16:51:26.982Z,15.10
2017-09-17T16:53:58.181Z,15.30
2017-09-17T16:56:29.242Z,15.00
2017-09-17T16:58:59.528Z,14.90
2017-09-17T17:01:31.489Z,14.80
2017-09-17T17:04:03.289Z,14.90
2017-09-17T17:06:40.383Z,14.90
2017-09-17T17:09:15.040Z,14.60
2017-09-17T17:11:46.551Z,14.80
2017-09-17T17:14:16.977Z,14.80
2017-09-17T17:16:54.866Z,14.80
2017-09-17T17:19:33.762Z,15.00
2017-09-17T17:22:12.455Z,15.00
2017-09-17T17:24:46.394Z,14.90
2017-09-17T17:27:21.539Z,14.80
2017-09-17T17:29:57.325Z,14.70
2017-09-17T17:32:28.652Z,14.70
2017-09-17T17:34:59.553Z,14.70
2017-09-17T17:37:29.759Z,14.70
2017-09-17T17:40:00.170Z,14.70
2017-09-17T17:42:30.620Z,14.70
2017-09-17T17:45:00.904Z,14.60
2017-09-17T17:47:31.423Z,14.60
2017-09-17T17:50:01.593Z,14.50
2017-09-17T17:52:32.065Z,14.50
2017-09-17T17:55:03.148Z,14.40
2017-09-17T17:57:33.413Z,14.40
2017-09-17T18:00:04.410Z,14.40
2017-09-17T18:02:36.135Z,14.30
2017-09-17T18:05:06.273Z,14.30
2017-09-17T18:07:37.128Z,14.30
2017-09-17T18:10:07.702Z,14.30
2017-09-17T18:12:38.855Z,14.20
2017-09-17T18:15:09.813Z,14.30
2017-09-17T18:17:41.498Z,14.30
2017-09-17T18:20:12.031Z,14.40
2017-09-17T18:22:43.329Z,14.20
2017-09-17T18:25:13.721Z,14.20
2017-09-17T18:27:43.914Z,14.10
2017-09-17T18:30:14.709Z,13.80
2017-09-17T18:32:45.154Z,13.70
2017-09-17T18:35:15.198Z,13.60
2017-09-17T18:37:45.999Z,13.50
2017-09-17T18:40:16.687Z,13.50
2017-09-17T18:42:47.092Z,13.60
2017-09-17T18:45:17.398Z,13.60
2017-09-17T18:47:48.948Z,13.50
2017-09-17T18:50:23.278Z,13.50
2017-09-17T18:52:53.371Z,13.40
2017-09-17T18:55:24.378Z,13.50
2017-09-17T18:58:04.354Z,13.30
2017-09-17T19:00:42.781Z,13.30
2017-09-17T19:03:17.478Z,13.20
2017-09-17T19:08:16.490Z,13.20
2017-09-17T19:10:47.378Z,13.20
2017-09-17T19:13:18.343Z,13.10
2017-09-17T19:15:49.906Z,13.10
2017-09-17T19:18:20.304Z,13.10
2017-09-17T19:20:51.233Z,13.00
2017-09-17T19:23:21.447Z,12.90
2017-09-17T19:25:51.782Z,12.90
2017-09-17T19:28:22.414Z,12.90
2017-09-17T19:30:53.020Z,12.80
2017-09-17T19:33:23.854Z,12.80
2017-09-17T19:35:54.238Z,12.70
2017-09-17T19:38:24.454Z,12.70
2017-09-17T19:40:55.161Z,12.70
2017-09-17T19:43:25.610Z,12.60
2017-09-17T19:45:56.289Z,12.60
2017-09-17T19:48:26.611Z,12.60
2017-09-17T19:50:56.983Z,12.60
2017-09-17T19:53:28.289Z,12.50
2017-09-17T19:55:58.994Z,12.50
2017-09-17T19:58:29.141Z,12.40
2017-09-17T20:00:59.989Z,12.40
2017-09-17T20:03:30.599Z,12.40
2017-09-17T20:06:01.107Z,12.40
2017-09-17T20:08:32.244Z,12.30
2017-09-17T20:11:03.651Z,12.20
2017-09-17T20:13:34.054Z,12.20
2017-09-17T20:16:04.458Z,12.20
2017-09-17T20:18:34.860Z,12.20
2017-09-17T20:21:06.471Z,12.20
2017-09-17T20:23:37.748Z,12.10
2017-09-17T20:26:07.886Z,12.10
2017-09-17T20:28:38.385Z,12.10
2017-09-17T20:31:08.676Z,12.10
2017-09-17T20:33:39.631Z,12.10
2017-09-17T20:36:16.814Z,12.10
2017-09-17T20:38:48.044Z,12.10
2017-09-17T20:41:18.573Z,12.10
2017-09-17T20:43:48.842Z,12.10
2017-09-17T20:46:19.143Z,12.10
2017-09-17T20:48:51.597Z,12.00
2017-09-17T20:51:21.978Z,12.00
2017-09-17T20:53:52.366Z,11.90
2017-09-17T20:56:22.537Z,11.90
2017-09-17T20:58:55.462Z,11.80
2017-09-17T21:01:26.084Z,11.80
2017-09-17T21:03:56.686Z,11.80
2017-09-17T21:06:27.139Z,11.80
2017-09-17T21:08:57.675Z,11.70
2017-09-17T21:11:27.864Z,11.70
2017-09-17T21:14:05.815Z,11.70
2017-09-17T21:16:46.542Z,11.70
2017-09-17T21:19:17.598Z,11.70
2017-09-17T21:21:48.731Z,11.70
2017-09-17T21:24:19.788Z,11.70
2017-09-17T21:26:50.048Z,11.60
2017-09-17T21:29:20.725Z,11.60
2017-09-17T21:31:50.913Z,11.60
2017-09-17T21:34:23.109Z,11.50
2017-09-17T21:36:56.541Z,11.50
2017-09-17T21:39:28.943Z,11.50
2017-09-17T21:41:59.766Z,11.50
2017-09-17T21:44:31.915Z,11.50
2017-09-17T21:47:03.177Z,11.50
2017-09-17T21:49:33.914Z,11.40
2017-09-17T21:52:05.295Z,11.30
2017-09-17T21:54:36.287Z,11.30
2017-09-17T21:57:07.091Z,11.20
2017-09-17T21:59:37.258Z,11.20
2017-09-17T22:02:08.807Z,11.20
2017-09-17T22:04:39.742Z,11.10
2017-09-17T22:07:10.330Z,11.10
2017-09-17T22:09:41.478Z,11.10
2017-09-17T22:12:11.796Z,11.10
2017-09-17T22:14:42.373Z,11.10
2017-09-17T22:17:13.850Z,11.10
2017-09-17T22:19:45.566Z,11.10
2017-09-17T22:22:16.099Z,11.10
2017-09-17T22:24:46.593Z,11.10
2017-09-17T22:27:17.070Z,11.00
2017-09-17T22:29:47.669Z,11.00
2017-09-17T22:32:17.725Z,10.90
2017-09-17T22:34:49.565Z,10.90
2017-09-17T22:37:19.983Z,10.90
2017-09-17T22:40:00.868Z,10.90
2017-09-17T22:42:32.406Z,10.90
2017-09-17T22:45:03.033Z,10.90
2017-09-17T22:47:33.963Z,10.80
2017-09-17T22:50:04.362Z,10.80
2017-09-17T22:52:34.787Z,10.80
2017-09-17T22:55:05.478Z,10.90
2017-09-17T22:57:37.006Z,10.80
2017-09-17T23:00:07.523Z,10.80
2017-09-17T23:02:37.571Z,10.80
2017-09-17T23:05:07.955Z,10.80
2017-09-17T23:07:38.459Z,10.80
2017-09-17T23:10:08.490Z,10.70
2017-09-17T23:12:39.009Z,10.70
2017-09-17T23:15:10.007Z,10.70
2017-09-17T23:17:40.112Z,10.70
2017-09-17T23:20:10.314Z,10.60
2017-09-17T23:22:40.698Z,10.60
2017-09-17T23:25:12.059Z,10.40
2017-09-17T23:27:44.060Z,10.40
2017-09-17T23:30:14.380Z,10.40
2017-09-17T23:32:44.944Z,10.30
2017-09-17T23:35:15.377Z,10.30
2017-09-17T23:37:46.280Z,10.20
2017-09-17T23:40:17.182Z,10.20
2017-09-17T23:42:49.449Z,10.10
2017-09-17T23:45:20.726Z,10.10
2017-09-17T23:47:51.040Z,10.10
2017-09-17T23:50:21.951Z,10.10
2017-09-17T23:52:52.139Z,10.10
2017-09-17T23:55:22.597Z,10.10
2017-09-17T23:57:53.743Z,10.10
